sensor_id;sensor_type;location;lat;lon;timestamp;temperature;humidity
21648;DHT22;10985;54.182;7.890;2023-03-01T00:00:37;4.60;99.90
21648;DHT22;10985;54.182;7.890;2023-03-01T00:03:02;4.60;99.90
21648;DHT22;10985;54.182;7.890;2023-03-01T00:05:28;4.60;99.90
21648;DHT22;10985;54.182;7.890;2023-03-01T00:07:53;4.60;99.90
21648;DHT22;10985;54.182;7.890;2023-03-01T00:10:19;4.60;99.90
21648;DHT22;10985;54.182;7.890;2023-03-01T00:12:44;4.60;99.90
21648;DHT22;10985;54.182;7.890;2023-03-01T00:15:10;4.50;99.90
21648;DHT22;10985;54.182;7.890;2023-03-01T00:17:36;4.50;99.90
21648;DHT22;10985;54.182;7.890;2023-03-01T00:20:02;4.40;99.90
21648;DHT22;10985;54.182;7.890;2023-03-01T00:22:28;4.50;99.90
21648;DHT22;10985;54.182;7.890;2023-03-01T00:24:54;4.50;99.90
21648;DHT22;10985;54.182;7.890;2023-03-01T00:27:19;4.50;99.90
21648;DHT22;10985;54.182;7.890;2023-03-01T00:29:45;4.40;99.90
21648;DHT22;10985;54.182;7.890;2023-03-01T00:32:10;4.40;99.90
21648;DHT22;10985;54.182;7.890;2023-03-01T00:34:36;4.40;99.90
21648;DHT22;10985;54.182;7.890;2023-03-01T00:37:01;4.40;99.90
21648;DHT22;10985;54.182;7.890;2023-03-01T00:39:31;4.30;99.90
21648;DHT22;10985;54.182;7.890;2023-03-01T00:41:57;4.40;99.90
21648;DHT22;10985;54.182;7.890;2023-03-01T00:44:22;4.40;99.90
21648;DHT22;10985;54.182;7.890;2023-03-01T00:46:48;4.40;99.90
21648;DHT22;10985;54.182;7.890;2023-03-01T00:49:14;4.40;99.90
21648;DHT22;10985;54.182;7.890;2023-03-01T00:51:39;4.40;99.90
21648;DHT22;10985;54.182;7.890;2023-03-01T00:54:08;4.40;99.90
21648;DHT22;10985;54.182;7.890;2023-03-01T00:56:34;4.40;99.90
21648;DHT22;10985;54.182;7.890;2023-03-01T00:59:00;4.30;99.90
21648;DHT22;10985;54.182;7.890;2023-03-01T01:01:27;4.30;99.90
21648;DHT22;10985;54.182;7.890;2023-03-01T01:04:05;4.30;99.90
21648;DHT22;10985;54.182;7.890;2023-03-01T01:06:34;4.30;99.90
21648;DHT22;10985;54.182;7.890;2023-03-01T01:09:01;4.30;99.90
21648;DHT22;10985;54.182;7.890;2023-03-01T01:11:29;4.30;99.90
21648;DHT22;10985;54.182;7.890;2023-03-01T01:13:55;4.30;99.90
21648;DHT22;10985;54.182;7.890;2023-03-01T01:16:22;4.30;99.90
21648;DHT22;10985;54.182;7.890;2023-03-01T01:18:48;4.40;99.90
21648;DHT22;10985;54.182;7.890;2023-03-01T01:21:16;4.40;99.90
21648;DHT22;10985;54.182;7.890;2023-03-01T01:23:43;4.40;99.90
21648;DHT22;10985;54.182;7.890;2023-03-01T01:26:30;4.40;99.90
21648;DHT22;10985;54.182;7.890;2023-03-01T01:28:56;4.40;99.90
21648;DHT22;10985;54.182;7.890;2023-03-01T01:31:22;4.40;99.90
21648;DHT22;10985;54.182;7.890;2023-03-01T01:33:54;4.40;99.90
21648;DHT22;10985;54.182;7.890;2023-03-01T01:36:20;4.40;99.90
21648;DHT22;10985;54.182;7.890;2023-03-01T01:38:46;4.40;99.90
21648;DHT22;10985;54.182;7.890;2023-03-01T01:41:12;4.50;99.90
21648;DHT22;10985;54.182;7.890;2023-03-01T01:43:44;4.40;99.90
21648;DHT22;10985;54.182;7.890;2023-03-01T01:46:30;4.40;99.90
21648;DHT22;10985;54.182;7.890;2023-03-01T01:49:00;4.40;99.90
21648;DHT22;10985;54.182;7.890;2023-03-01T01:51:29;4.50;99.90
21648;DHT22;10985;54.182;7.890;2023-03-01T01:54:47;4.40;99.90
21648;DHT22;10985;54.182;7.890;2023-03-01T01:57:01;4.50;99.90
21648;DHT22;10985;54.182;7.890;2023-03-01T01:59:28;4.40;99.90
21648;DHT22;10985;54.182;7.890;2023-03-01T02:01:58;4.40;99.90
21648;DHT22;10985;54.182;7.890;2023-03-01T02:04:24;4.40;99.90
21648;DHT22;10985;54.182;7.890;2023-03-01T02:07:06;4.40;99.90
21648;DHT22;10985;54.182;7.890;2023-03-01T02:09:35;4.50;99.90
21648;DHT22;10985;54.182;7.890;2023-03-01T02:12:02;4.40;99.90
21648;DHT22;10985;54.182;7.890;2023-03-01T02:14:29;4.40;99.90
21648;DHT22;10985;54.182;7.890;2023-03-01T02:16:55;4.40;99.90
21648;DHT22;10985;54.182;7.890;2023-03-01T02:19:42;4.40;99.90
21648;DHT22;10985;54.182;7.890;2023-03-01T02:22:31;4.40;99.90
21648;DHT22;10985;54.182;7.890;2023-03-01T02:27:41;4.40;99.90
21648;DHT22;10985;54.182;7.890;2023-03-01T02:30:10;4.40;99.90
21648;DHT22;10985;54.182;7.890;2023-03-01T02:32:38;4.40;99.90
21648;DHT22;10985;54.182;7.890;2023-03-01T02:35:11;4.40;99.90
21648;DHT22;10985;54.182;7.890;2023-03-01T02:37:39;4.40;99.90
21648;DHT22;10985;54.182;7.890;2023-03-01T02:40:08;4.40;99.90
21648;DHT22;10985;54.182;7.890;2023-03-01T02:42:44;4.40;99.90
21648;DHT22;10985;54.182;7.890;2023-03-01T02:45:12;4.40;99.90
21648;DHT22;10985;54.182;7.890;2023-03-01T02:47:37;4.40;99.90
21648;DHT22;10985;54.182;7.890;2023-03-01T02:53:12;4.30;99.90
21648;DHT22;10985;54.182;7.890;2023-03-01T02:55:41;4.40;99.90
21648;DHT22;10985;54.182;7.890;2023-03-01T02:58:07;4.40;99.90
21648;DHT22;10985;54.182;7.890;2023-03-01T03:00:38;4.40;99.90
21648;DHT22;10985;54.182;7.890;2023-03-01T03:03:06;4.40;99.90
21648;DHT22;10985;54.182;7.890;2023-03-01T03:05:32;4.40;99.90
21648;DHT22;10985;54.182;7.890;2023-03-01T03:08:00;4.40;99.90
21648;DHT22;10985;54.182;7.890;2023-03-01T03:10:32;4.40;99.90
21648;DHT22;10985;54.182;7.890;2023-03-01T03:13:01;4.40;99.90
21648;DHT22;10985;54.182;7.890;2023-03-01T03:15:28;4.30;99.90
21648;DHT22;10985;54.182;7.890;2023-03-01T03:17:55;4.30;99.90
21648;DHT22;10985;54.182;7.890;2023-03-01T03:20:24;4.30;99.90
21648;DHT22;10985;54.182;7.890;2023-03-01T03:22:52;4.30;99.90
21648;DHT22;10985;54.182;7.890;2023-03-01T03:25:18;4.20;99.90
21648;DHT22;10985;54.182;7.890;2023-03-01T03:27:46;4.20;99.90
21648;DHT22;10985;54.182;7.890;2023-03-01T03:30:16;4.20;99.90
21648;DHT22;10985;54.182;7.890;2023-03-01T03:32:43;4.20;99.90
21648;DHT22;10985;54.182;7.890;2023-03-01T03:35:25;4.20;99.90
21648;DHT22;10985;54.182;7.890;2023-03-01T03:37:51;4.20;99.90
21648;DHT22;10985;54.182;7.890;2023-03-01T03:40:40;4.20;99.90
21648;DHT22;10985;54.182;7.890;2023-03-01T03:43:11;4.20;99.90
21648;DHT22;10985;54.182;7.890;2023-03-01T03:45:37;4.20;99.90
21648;DHT22;10985;54.182;7.890;2023-03-01T03:48:05;4.20;99.90
21648;DHT22;10985;54.182;7.890;2023-03-01T03:50:31;4.20;99.90
21648;DHT22;10985;54.182;7.890;2023-03-01T03:52:56;4.20;99.90
21648;DHT22;10985;54.182;7.890;2023-03-01T03:55:22;4.20;99.90
21648;DHT22;10985;54.182;7.890;2023-03-01T03:57:48;4.20;99.90
21648;DHT22;10985;54.182;7.890;2023-03-01T04:00:21;4.20;99.90
21648;DHT22;10985;54.182;7.890;2023-03-01T04:02:49;4.20;99.90
21648;DHT22;10985;54.182;7.890;2023-03-01T04:05:17;4.20;99.90
21648;DHT22;10985;54.182;7.890;2023-03-01T04:07:43;4.10;99.90
21648;DHT22;10985;54.182;7.890;2023-03-01T04:10:15;4.10;99.90
21648;DHT22;10985;54.182;7.890;2023-03-01T04:12:40;4.10;99.90
21648;DHT22;10985;54.182;7.890;2023-03-01T04:15:09;4.10;99.90
21648;DHT22;10985;54.182;7.890;2023-03-01T04:17:46;4.10;99.90
21648;DHT22;10985;54.182;7.890;2023-03-01T04:20:15;4.20;99.90
21648;DHT22;10985;54.182;7.890;2023-03-01T04:22:50;4.20;99.90
21648;DHT22;10985;54.182;7.890;2023-03-01T04:25:16;4.20;99.90
21648;DHT22;10985;54.182;7.890;2023-03-01T04:27:41;4.20;99.90
21648;DHT22;10985;54.182;7.890;2023-03-01T04:30:08;4.20;99.90
21648;DHT22;10985;54.182;7.890;2023-03-01T04:32:34;4.20;99.90
21648;DHT22;10985;54.182;7.890;2023-03-01T04:35:00;4.20;99.90
21648;DHT22;10985;54.182;7.890;2023-03-01T04:37:26;4.20;99.90
21648;DHT22;10985;54.182;7.890;2023-03-01T04:39:51;4.20;99.90
21648;DHT22;10985;54.182;7.890;2023-03-01T04:42:18;4.30;99.90
21648;DHT22;10985;54.182;7.890;2023-03-01T04:44:44;4.30;99.90
21648;DHT22;10985;54.182;7.890;2023-03-01T04:47:10;4.30;99.90
21648;DHT22;10985;54.182;7.890;2023-03-01T04:49:35;4.30;99.90
21648;DHT22;10985;54.182;7.890;2023-03-01T04:52:01;4.30;99.90
21648;DHT22;10985;54.182;7.890;2023-03-01T04:54:31;4.40;99.90
21648;DHT22;10985;54.182;7.890;2023-03-01T04:56:57;4.40;99.90
21648;DHT22;10985;54.182;7.890;2023-03-01T04:59:23;4.40;99.90
21648;DHT22;10985;54.182;7.890;2023-03-01T05:01:50;4.40;99.90
21648;DHT22;10985;54.182;7.890;2023-03-01T05:04:15;4.40;99.90
21648;DHT22;10985;54.182;7.890;2023-03-01T05:06:41;4.50;99.90
21648;DHT22;10985;54.182;7.890;2023-03-01T05:09:06;4.50;99.90
21648;DHT22;10985;54.182;7.890;2023-03-01T05:11:32;4.50;99.90
21648;DHT22;10985;54.182;7.890;2023-03-01T05:14:02;4.50;99.90
21648;DHT22;10985;54.182;7.890;2023-03-01T05:16:27;4.50;99.90
21648;DHT22;10985;54.182;7.890;2023-03-01T05:18:53;4.50;99.90
21648;DHT22;10985;54.182;7.890;2023-03-01T05:21:21;4.50;99.90
21648;DHT22;10985;54.182;7.890;2023-03-01T05:23:47;4.60;99.90
21648;DHT22;10985;54.182;7.890;2023-03-01T05:26:13;4.60;99.90
21648;DHT22;10985;54.182;7.890;2023-03-01T05:28:39;4.60;99.90
21648;DHT22;10985;54.182;7.890;2023-03-01T05:31:05;4.60;99.90
21648;DHT22;10985;54.182;7.890;2023-03-01T05:33:36;4.60;99.90
21648;DHT22;10985;54.182;7.890;2023-03-01T05:36:03;4.60;99.90
21648;DHT22;10985;54.182;7.890;2023-03-01T05:38:29;4.60;99.90
21648;DHT22;10985;54.182;7.890;2023-03-01T05:40:54;4.60;99.90
21648;DHT22;10985;54.182;7.890;2023-03-01T05:43:20;4.70;99.90
21648;DHT22;10985;54.182;7.890;2023-03-01T05:45:45;4.70;99.90
21648;DHT22;10985;54.182;7.890;2023-03-01T05:48:11;4.70;99.90
21648;DHT22;10985;54.182;7.890;2023-03-01T05:50:40;4.70;99.90
21648;DHT22;10985;54.182;7.890;2023-03-01T05:53:10;4.70;99.90
21648;DHT22;10985;54.182;7.890;2023-03-01T05:55:36;4.70;99.90
21648;DHT22;10985;54.182;7.890;2023-03-01T05:58:04;4.70;99.90
21648;DHT22;10985;54.182;7.890;2023-03-01T06:00:30;4.70;99.90
21648;DHT22;10985;54.182;7.890;2023-03-01T06:02:57;4.70;99.90
21648;DHT22;10985;54.182;7.890;2023-03-01T06:05:23;4.70;99.90
21648;DHT22;10985;54.182;7.890;2023-03-01T06:07:49;4.80;99.90
21648;DHT22;10985;54.182;7.890;2023-03-01T06:10:16;4.70;99.90
21648;DHT22;10985;54.182;7.890;2023-03-01T06:12:42;4.70;99.90
21648;DHT22;10985;54.182;7.890;2023-03-01T06:15:08;4.70;99.90
21648;DHT22;10985;54.182;7.890;2023-03-01T06:17:35;4.70;99.90
21648;DHT22;10985;54.182;7.890;2023-03-01T06:20:06;4.70;99.90
21648;DHT22;10985;54.182;7.890;2023-03-01T06:22:31;4.70;99.90
21648;DHT22;10985;54.182;7.890;2023-03-01T06:24:57;4.70;99.90
21648;DHT22;10985;54.182;7.890;2023-03-01T06:27:22;4.70;99.90
21648;DHT22;10985;54.182;7.890;2023-03-01T06:29:48;4.70;99.90
21648;DHT22;10985;54.182;7.890;2023-03-01T06:32:14;4.70;99.90
21648;DHT22;10985;54.182;7.890;2023-03-01T06:34:39;4.60;99.90
21648;DHT22;10985;54.182;7.890;2023-03-01T06:37:06;4.60;99.90
21648;DHT22;10985;54.182;7.890;2023-03-01T06:39:32;4.60;99.90
21648;DHT22;10985;54.182;7.890;2023-03-01T06:41:58;4.60;99.90
21648;DHT22;10985;54.182;7.890;2023-03-01T06:44:24;4.60;99.90
21648;DHT22;10985;54.182;7.890;2023-03-01T06:46:49;4.60;99.90
21648;DHT22;10985;54.182;7.890;2023-03-01T06:49:15;4.60;99.90
21648;DHT22;10985;54.182;7.890;2023-03-01T06:51:43;4.60;99.90
21648;DHT22;10985;54.182;7.890;2023-03-01T06:54:09;4.60;99.90
21648;DHT22;10985;54.182;7.890;2023-03-01T06:56:35;4.60;99.90
21648;DHT22;10985;54.182;7.890;2023-03-01T06:59:00;4.60;99.90
21648;DHT22;10985;54.182;7.890;2023-03-01T07:01:26;4.60;99.90
21648;DHT22;10985;54.182;7.890;2023-03-01T07:03:51;4.70;99.90
21648;DHT22;10985;54.182;7.890;2023-03-01T07:06:17;4.70;99.90
21648;DHT22;10985;54.182;7.890;2023-03-01T07:08:42;4.70;99.90
21648;DHT22;10985;54.182;7.890;2023-03-01T07:11:08;4.70;99.90
21648;DHT22;10985;54.182;7.890;2023-03-01T07:13:33;4.70;99.90
21648;DHT22;10985;54.182;7.890;2023-03-01T07:15:59;4.70;99.90
21648;DHT22;10985;54.182;7.890;2023-03-01T07:18:24;4.80;99.90
21648;DHT22;10985;54.182;7.890;2023-03-01T07:20:50;4.80;99.90
21648;DHT22;10985;54.182;7.890;2023-03-01T07:23:15;4.80;99.90
21648;DHT22;10985;54.182;7.890;2023-03-01T07:25:41;4.80;99.90
21648;DHT22;10985;54.182;7.890;2023-03-01T07:28:06;4.80;99.90
21648;DHT22;10985;54.182;7.890;2023-03-01T07:30:32;4.90;99.90
21648;DHT22;10985;54.182;7.890;2023-03-01T07:32:58;4.90;99.90
21648;DHT22;10985;54.182;7.890;2023-03-01T07:35:26;4.90;99.90
21648;DHT22;10985;54.182;7.890;2023-03-01T07:37:52;5.00;99.90
21648;DHT22;10985;54.182;7.890;2023-03-01T07:40:17;5.00;99.90
21648;DHT22;10985;54.182;7.890;2023-03-01T07:42:43;5.00;99.90
21648;DHT22;10985;54.182;7.890;2023-03-01T07:45:09;5.10;99.90
21648;DHT22;10985;54.182;7.890;2023-03-01T07:47:35;5.10;99.90
21648;DHT22;10985;54.182;7.890;2023-03-01T07:50:00;5.20;99.90
21648;DHT22;10985;54.182;7.890;2023-03-01T07:52:26;5.20;99.90
21648;DHT22;10985;54.182;7.890;2023-03-01T07:54:52;5.30;99.90
21648;DHT22;10985;54.182;7.890;2023-03-01T07:57:17;5.40;99.90
21648;DHT22;10985;54.182;7.890;2023-03-01T07:59:43;5.40;99.90
21648;DHT22;10985;54.182;7.890;2023-03-01T08:02:10;5.50;99.90
21648;DHT22;10985;54.182;7.890;2023-03-01T08:04:35;5.50;99.90
21648;DHT22;10985;54.182;7.890;2023-03-01T08:07:04;5.60;99.90
21648;DHT22;10985;54.182;7.890;2023-03-01T08:09:29;5.70;99.90
21648;DHT22;10985;54.182;7.890;2023-03-01T08:11:56;5.70;99.90
21648;DHT22;10985;54.182;7.890;2023-03-01T08:14:24;5.90;99.90
21648;DHT22;10985;54.182;7.890;2023-03-01T08:16:50;6.00;99.90
21648;DHT22;10985;54.182;7.890;2023-03-01T08:19:15;6.00;99.90
21648;DHT22;10985;54.182;7.890;2023-03-01T08:21:41;6.10;99.90
21648;DHT22;10985;54.182;7.890;2023-03-01T08:24:07;6.20;99.90
21648;DHT22;10985;54.182;7.890;2023-03-01T08:26:33;6.30;99.90
21648;DHT22;10985;54.182;7.890;2023-03-01T08:29:00;6.40;99.90
21648;DHT22;10985;54.182;7.890;2023-03-01T08:31:29;6.50;99.90
21648;DHT22;10985;54.182;7.890;2023-03-01T08:33:57;6.60;99.90
21648;DHT22;10985;54.182;7.890;2023-03-01T08:36:24;6.60;99.90
21648;DHT22;10985;54.182;7.890;2023-03-01T08:38:50;6.70;99.90
21648;DHT22;10985;54.182;7.890;2023-03-01T08:41:16;6.80;99.90
21648;DHT22;10985;54.182;7.890;2023-03-01T08:43:41;6.80;99.90
21648;DHT22;10985;54.182;7.890;2023-03-01T08:46:07;6.80;99.90
21648;DHT22;10985;54.182;7.890;2023-03-01T08:48:33;6.80;99.90
21648;DHT22;10985;54.182;7.890;2023-03-01T08:51:18;6.80;99.90
21648;DHT22;10985;54.182;7.890;2023-03-01T08:53:44;6.80;99.90
21648;DHT22;10985;54.182;7.890;2023-03-01T08:56:10;6.80;99.90
21648;DHT22;10985;54.182;7.890;2023-03-01T08:58:36;6.80;99.90
21648;DHT22;10985;54.182;7.890;2023-03-01T09:01:08;6.80;99.90
21648;DHT22;10985;54.182;7.890;2023-03-01T09:03:33;6.80;99.90
21648;DHT22;10985;54.182;7.890;2023-03-01T09:06:03;6.80;99.90
21648;DHT22;10985;54.182;7.890;2023-03-01T09:08:30;6.80;99.90
21648;DHT22;10985;54.182;7.890;2023-03-01T09:10:55;6.90;99.90
21648;DHT22;10985;54.182;7.890;2023-03-01T09:13:21;7.00;99.90
21648;DHT22;10985;54.182;7.890;2023-03-01T09:15:50;7.10;99.90
21648;DHT22;10985;54.182;7.890;2023-03-01T09:18:15;7.20;99.90
21648;DHT22;10985;54.182;7.890;2023-03-01T09:20:41;7.30;99.90
21648;DHT22;10985;54.182;7.890;2023-03-01T09:23:07;7.30;99.90
21648;DHT22;10985;54.182;7.890;2023-03-01T09:25:34;7.40;99.90
21648;DHT22;10985;54.182;7.890;2023-03-01T09:27:59;7.50;99.90
21648;DHT22;10985;54.182;7.890;2023-03-01T09:30:25;7.60;99.90
21648;DHT22;10985;54.182;7.890;2023-03-01T09:32:50;7.60;99.90
21648;DHT22;10985;54.182;7.890;2023-03-01T09:35:16;7.70;99.90
21648;DHT22;10985;54.182;7.890;2023-03-01T09:37:41;7.80;99.90
21648;DHT22;10985;54.182;7.890;2023-03-01T09:40:21;7.90;99.90
21648;DHT22;10985;54.182;7.890;2023-03-01T09:43:05;7.90;99.90
21648;DHT22;10985;54.182;7.890;2023-03-01T09:45:35;8.00;99.90
21648;DHT22;10985;54.182;7.890;2023-03-01T09:48:03;8.10;99.90
21648;DHT22;10985;54.182;7.890;2023-03-01T09:50:35;8.20;99.90
21648;DHT22;10985;54.182;7.890;2023-03-01T09:53:26;8.20;99.90
21648;DHT22;10985;54.182;7.890;2023-03-01T09:56:05;8.30;99.90
21648;DHT22;10985;54.182;7.890;2023-03-01T09:59:03;8.50;99.90
21648;DHT22;10985;54.182;7.890;2023-03-01T10:09:30;8.80;99.90
21648;DHT22;10985;54.182;7.890;2023-03-01T10:11:57;8.90;99.90
21648;DHT22;10985;54.182;7.890;2023-03-01T10:14:35;8.90;99.90
21648;DHT22;10985;54.182;7.890;2023-03-01T10:17:12;9.00;99.90
21648;DHT22;10985;54.182;7.890;2023-03-01T10:19:46;9.00;99.90
21648;DHT22;10985;54.182;7.890;2023-03-01T10:24:47;9.10;99.90
21648;DHT22;10985;54.182;7.890;2023-03-01T10:27:23;9.20;99.90
21648;DHT22;10985;54.182;7.890;2023-03-01T10:29:52;9.40;99.90
21648;DHT22;10985;54.182;7.890;2023-03-01T10:32:19;9.70;99.90
21648;DHT22;10985;54.182;7.890;2023-03-01T10:34:47;10.00;99.90
21648;DHT22;10985;54.182;7.890;2023-03-01T10:37:15;10.10;99.90
21648;DHT22;10985;54.182;7.890;2023-03-01T10:39:57;10.20;99.90
21648;DHT22;10985;54.182;7.890;2023-03-01T10:42:35;10.40;99.90
21648;DHT22;10985;54.182;7.890;2023-03-01T10:48:22;10.80;99.90
21648;DHT22;10985;54.182;7.890;2023-03-01T10:51:06;11.10;99.90
21648;DHT22;10985;54.182;7.890;2023-03-01T10:53:41;11.20;99.90
21648;DHT22;10985;54.182;7.890;2023-03-01T10:56:12;11.40;99.90
21648;DHT22;10985;54.182;7.890;2023-03-01T10:58:41;11.40;99.90
21648;DHT22;10985;54.182;7.890;2023-03-01T11:03:42;11.60;99.90
21648;DHT22;10985;54.182;7.890;2023-03-01T11:11:31;11.60;99.90
21648;DHT22;10985;54.182;7.890;2023-03-01T11:14:18;11.70;99.90
21648;DHT22;10985;54.182;7.890;2023-03-01T11:16:45;11.60;99.90
21648;DHT22;10985;54.182;7.890;2023-03-01T11:24:41;11.40;99.90
21648;DHT22;10985;54.182;7.890;2023-03-01T11:27:32;11.40;99.90
21648;DHT22;10985;54.182;7.890;2023-03-01T11:30:20;11.50;99.90
21648;DHT22;10985;54.182;7.890;2023-03-01T11:33:03;11.40;99.90
21648;DHT22;10985;54.182;7.890;2023-03-01T11:35:29;11.60;99.90
21648;DHT22;10985;54.182;7.890;2023-03-01T11:40:34;11.80;99.90
21648;DHT22;10985;54.182;7.890;2023-03-01T11:46:24;11.90;99.90
21648;DHT22;10985;54.182;7.890;2023-03-01T11:54:33;12.30;99.90
21648;DHT22;10985;54.182;7.890;2023-03-01T11:57:12;12.60;99.90
21648;DHT22;10985;54.182;7.890;2023-03-01T12:00:02;13.00;99.90
21648;DHT22;10985;54.182;7.890;2023-03-01T12:02:55;13.50;99.90
21648;DHT22;10985;54.182;7.890;2023-03-01T12:11:39;15.30;99.90
21648;DHT22;10985;54.182;7.890;2023-03-01T12:14:31;15.80;99.90
21648;DHT22;10985;54.182;7.890;2023-03-01T12:22:31;17.70;99.90
21648;DHT22;10985;54.182;7.890;2023-03-01T12:25:16;18.20;99.90
21648;DHT22;10985;54.182;7.890;2023-03-01T12:28:17;18.40;99.90
21648;DHT22;10985;54.182;7.890;2023-03-01T12:31:15;18.50;99.90
21648;DHT22;10985;54.182;7.890;2023-03-01T12:50:51;17.20;99.90
21648;DHT22;10985;54.182;7.890;2023-03-01T12:53:24;16.80;99.90
21648;DHT22;10985;54.182;7.890;2023-03-01T12:55:52;16.40;99.90
21648;DHT22;10985;54.182;7.890;2023-03-01T13:06:39;14.80;99.90
21648;DHT22;10985;54.182;7.890;2023-03-01T13:11:45;14.00;99.90
21648;DHT22;10985;54.182;7.890;2023-03-01T13:16:45;13.40;99.90
21648;DHT22;10985;54.182;7.890;2023-03-01T13:19:17;13.10;99.90
21648;DHT22;10985;54.182;7.890;2023-03-01T13:21:44;12.70;99.90
21648;DHT22;10985;54.182;7.890;2023-03-01T13:24:41;12.50;99.90
21648;DHT22;10985;54.182;7.890;2023-03-01T13:29:53;12.00;99.90
21648;DHT22;10985;54.182;7.890;2023-03-01T13:32:34;11.80;99.90
21648;DHT22;10985;54.182;7.890;2023-03-01T13:37:51;11.40;99.90
21648;DHT22;10985;54.182;7.890;2023-03-01T13:42:51;11.10;99.90
21648;DHT22;10985;54.182;7.890;2023-03-01T13:45:43;10.90;99.90
21648;DHT22;10985;54.182;7.890;2023-03-01T13:48:25;10.70;99.90
21648;DHT22;10985;54.182;7.890;2023-03-01T13:50:55;10.60;99.90
21648;DHT22;10985;54.182;7.890;2023-03-01T13:53:25;10.40;99.90
21648;DHT22;10985;54.182;7.890;2023-03-01T13:55:56;10.30;99.90
21648;DHT22;10985;54.182;7.890;2023-03-01T13:58:30;10.20;99.90
21648;DHT22;10985;54.182;7.890;2023-03-01T14:01:01;10.10;99.90
21648;DHT22;10985;54.182;7.890;2023-03-01T14:03:28;10.00;99.90
21648;DHT22;10985;54.182;7.890;2023-03-01T14:06:21;9.80;99.90
21648;DHT22;10985;54.182;7.890;2023-03-01T14:08:49;9.70;99.90
21648;DHT22;10985;54.182;7.890;2023-03-01T14:19:09;9.40;99.90
21648;DHT22;10985;54.182;7.890;2023-03-01T14:21:37;9.30;99.90
21648;DHT22;10985;54.182;7.890;2023-03-01T14:24:03;9.20;99.90
21648;DHT22;10985;54.182;7.890;2023-03-01T14:26:37;9.10;99.90
21648;DHT22;10985;54.182;7.890;2023-03-01T14:29:03;9.10;99.90
21648;DHT22;10985;54.182;7.890;2023-03-01T14:31:35;9.00;99.90
21648;DHT22;10985;54.182;7.890;2023-03-01T14:34:01;8.90;99.90
21648;DHT22;10985;54.182;7.890;2023-03-01T14:36:30;8.80;99.90
21648;DHT22;10985;54.182;7.890;2023-03-01T14:38:55;8.80;99.90
21648;DHT22;10985;54.182;7.890;2023-03-01T14:41:26;8.70;99.90
21648;DHT22;10985;54.182;7.890;2023-03-01T14:43:56;8.70;99.90
21648;DHT22;10985;54.182;7.890;2023-03-01T14:46:28;8.60;99.90
21648;DHT22;10985;54.182;7.890;2023-03-01T14:49:01;8.50;99.90
21648;DHT22;10985;54.182;7.890;2023-03-01T14:51:27;8.50;99.90
21648;DHT22;10985;54.182;7.890;2023-03-01T14:53:52;8.50;99.90
21648;DHT22;10985;54.182;7.890;2023-03-01T14:56:19;8.40;99.90
21648;DHT22;10985;54.182;7.890;2023-03-01T14:58:45;8.30;99.90
21648;DHT22;10985;54.182;7.890;2023-03-01T15:01:15;8.30;99.90
21648;DHT22;10985;54.182;7.890;2023-03-01T15:03:44;8.20;99.90
21648;DHT22;10985;54.182;7.890;2023-03-01T15:06:10;8.20;99.90
21648;DHT22;10985;54.182;7.890;2023-03-01T15:08:44;8.10;99.90
21648;DHT22;10985;54.182;7.890;2023-03-01T15:14:36;8.00;99.90
21648;DHT22;10985;54.182;7.890;2023-03-01T15:17:03;7.90;99.90
21648;DHT22;10985;54.182;7.890;2023-03-01T15:19:30;7.80;99.90
21648;DHT22;10985;54.182;7.890;2023-03-01T15:21:56;7.80;99.90
21648;DHT22;10985;54.182;7.890;2023-03-01T15:24:25;7.70;99.90
21648;DHT22;10985;54.182;7.890;2023-03-01T15:26:58;7.70;99.90
21648;DHT22;10985;54.182;7.890;2023-03-01T15:29:29;7.70;99.90
21648;DHT22;10985;54.182;7.890;2023-03-01T15:31:59;7.60;99.90
21648;DHT22;10985;54.182;7.890;2023-03-01T15:34:33;7.50;99.90
21648;DHT22;10985;54.182;7.890;2023-03-01T15:37:02;7.50;99.90
21648;DHT22;10985;54.182;7.890;2023-03-01T15:39:53;7.40;99.90
21648;DHT22;10985;54.182;7.890;2023-03-01T15:47:51;7.30;99.90
21648;DHT22;10985;54.182;7.890;2023-03-01T15:50:27;7.20;99.90
21648;DHT22;10985;54.182;7.890;2023-03-01T15:52:53;7.20;99.90
21648;DHT22;10985;54.182;7.890;2023-03-01T15:55:28;7.10;99.90
21648;DHT22;10985;54.182;7.890;2023-03-01T15:58:17;7.10;99.90
21648;DHT22;10985;54.182;7.890;2023-03-01T16:00:44;7.00;99.90
21648;DHT22;10985;54.182;7.890;2023-03-01T16:03:11;7.00;99.90
21648;DHT22;10985;54.182;7.890;2023-03-01T16:05:38;6.90;99.90
21648;DHT22;10985;54.182;7.890;2023-03-01T16:08:05;6.90;99.90
21648;DHT22;10985;54.182;7.890;2023-03-01T16:10:31;6.80;99.90
21648;DHT22;10985;54.182;7.890;2023-03-01T16:12:58;6.80;99.90
21648;DHT22;10985;54.182;7.890;2023-03-01T16:15:31;6.70;99.90
21648;DHT22;10985;54.182;7.890;2023-03-01T16:17:58;6.70;99.90
21648;DHT22;10985;54.182;7.890;2023-03-01T16:20:24;6.60;99.90
21648;DHT22;10985;54.182;7.890;2023-03-01T16:22:50;6.60;99.90
21648;DHT22;10985;54.182;7.890;2023-03-01T16:25:18;6.60;99.90
21648;DHT22;10985;54.182;7.890;2023-03-01T16:27:45;6.60;99.90
21648;DHT22;10985;54.182;7.890;2023-03-01T16:30:12;6.50;99.90
21648;DHT22;10985;54.182;7.890;2023-03-01T16:32:39;6.50;99.90
21648;DHT22;10985;54.182;7.890;2023-03-01T16:35:09;6.50;99.90
21648;DHT22;10985;54.182;7.890;2023-03-01T16:37:35;6.50;99.90
21648;DHT22;10985;54.182;7.890;2023-03-01T16:40:04;6.50;99.90
21648;DHT22;10985;54.182;7.890;2023-03-01T16:42:34;6.50;99.90
21648;DHT22;10985;54.182;7.890;2023-03-01T16:45:00;6.40;99.90
21648;DHT22;10985;54.182;7.890;2023-03-01T16:47:27;6.40;99.90
21648;DHT22;10985;54.182;7.890;2023-03-01T16:49:53;6.30;99.90
21648;DHT22;10985;54.182;7.890;2023-03-01T16:52:19;6.30;99.90
21648;DHT22;10985;54.182;7.890;2023-03-01T16:54:45;6.30;99.90
21648;DHT22;10985;54.182;7.890;2023-03-01T16:57:10;6.20;99.90
21648;DHT22;10985;54.182;7.890;2023-03-01T16:59:36;6.10;99.90
21648;DHT22;10985;54.182;7.890;2023-03-01T17:02:03;6.10;99.90
21648;DHT22;10985;54.182;7.890;2023-03-01T17:04:28;6.10;99.90
21648;DHT22;10985;54.182;7.890;2023-03-01T17:06:54;6.10;99.90
21648;DHT22;10985;54.182;7.890;2023-03-01T17:09:19;6.10;99.90
21648;DHT22;10985;54.182;7.890;2023-03-01T17:11:47;6.00;99.90
21648;DHT22;10985;54.182;7.890;2023-03-01T17:14:13;6.00;99.90
21648;DHT22;10985;54.182;7.890;2023-03-01T17:16:40;6.00;99.90
21648;DHT22;10985;54.182;7.890;2023-03-01T17:19:06;5.90;99.90
21648;DHT22;10985;54.182;7.890;2023-03-01T17:21:32;5.90;99.90
21648;DHT22;10985;54.182;7.890;2023-03-01T17:23:57;5.80;99.90
21648;DHT22;10985;54.182;7.890;2023-03-01T17:26:23;5.80;99.90
21648;DHT22;10985;54.182;7.890;2023-03-01T17:28:49;5.80;99.90
21648;DHT22;10985;54.182;7.890;2023-03-01T17:31:18;5.70;99.90
21648;DHT22;10985;54.182;7.890;2023-03-01T17:33:44;5.70;99.90
21648;DHT22;10985;54.182;7.890;2023-03-01T17:36:09;5.60;99.90
21648;DHT22;10985;54.182;7.890;2023-03-01T17:38:35;5.60;99.90
21648;DHT22;10985;54.182;7.890;2023-03-01T17:41:02;5.60;99.90
21648;DHT22;10985;54.182;7.890;2023-03-01T17:43:28;5.50;99.90
21648;DHT22;10985;54.182;7.890;2023-03-01T17:45:54;5.50;99.90
21648;DHT22;10985;54.182;7.890;2023-03-01T17:48:20;5.40;99.90